Monday, December 18, 2017, 7:53 AM EST
Back to Local

KTHV, York Airport

Location: Spring Grove, PA, United States Lat: 39.917
Local Time: 7:53 AM EST (12:53 GMT) Lon: -76.883
Time Zone: US/Eastern Elev: 478 ft

Show me the last for .
Show Decoded

2017-12-18 07:34 METAR KTHV 181234Z AUTO 00000KT 2 1/2SM BR OVC070 M02/M02 A3010 RMK AO2
                 T10171017 =
2017-12-18 06:53 METAR KTHV 181153Z AUTO 00000KT 4SM BR OVC070 M02/M02 A3010 RMK AO2 SLP202 60000
                 T10171022 10028 21028 55006 =
2017-12-18 05:53 METAR KTHV 181053Z AUTO 00000KT 4SM BR BKN075 M01/M02 A3009 RMK AO2 SLP197
                 T10111017 =
2017-12-18 04:53 METAR KTHV 180953Z AUTO 00000KT 6SM BR FEW060 OVC080 01/M01 A3011 RMK AO2
                 RAB10E20UPB20E24 SLP201 P0000 T00111006 =
2017-12-18 03:53 METAR KTHV 180853Z AUTO 00000KT 7SM OVC050 02/M01 A3012 RMK AO2 SLP206 T00171011
                 55002 =
2017-12-18 02:53 METAR KTHV 180753Z AUTO 00000KT 7SM OVC060 02/M01 A3012 RMK AO2 SLP205 T00221006
                 =
2017-12-18 01:53 METAR KTHV 180653Z AUTO 00000KT 7SM OVC060 02/M01 A3012 RMK AO2 SLP204 T00221006
                 =
2017-12-18 00:53 METAR KTHV 180553Z AUTO 01004KT 7SM OVC070 02/M01 A3013 RMK AO2 SLP208 T00221006
                 10033 20011 56007 =
2017-12-17 23:53 METAR KTHV 180453Z AUTO 13004KT 7SM OVC090 03/M01 A3013 RMK AO2 SLP209 T00281006
                 400781067 =
2017-12-17 22:53 METAR KTHV 180353Z AUTO 00000KT 7SM FEW080 OVC095 03/M01 A3014 RMK AO2 SLP214
                 T00331006 =
2017-12-17 21:53 METAR KTHV 180253Z AUTO 11003KT 7SM OVC100 03/M01 A3015 RMK AO2 SLP216 T00281006
                 56013 =
2017-12-17 20:53 METAR KTHV 180153Z AUTO 00000KT 7SM OVC070 03/M01 A3017 RMK AO2 SLP223 T00331006
                 =
2017-12-17 19:53 METAR KTHV 180053Z AUTO 00000KT 8SM BKN065 OVC085 02/M01 A3017 RMK AO2 SLP223
                 T00171011 =
2017-12-17 18:53 METAR KTHV 172353Z AUTO 00000KT 8SM BKN100 02/M02 A3019 RMK AO2 SLP230 T00171017
                 10078 20017 50006 =
2017-12-17 17:53 METAR KTHV 172253Z AUTO 00000KT 9SM OVC100 03/M01 A3020 RMK AO2 SLP235 T00281011
                 =
2017-12-17 16:53 METAR KTHV 172153Z AUTO 00000KT 9SM BKN110 05/M01 A3018 RMK AO2 SLP227 T00501011
                 =
2017-12-17 15:53 METAR KTHV 172053Z AUTO 12003KT 10SM CLR 06/M01 A3017 RMK AO2 SLP224 T00611006
                 55012 =
2017-12-17 14:53 METAR KTHV 171953Z AUTO 11003KT 10SM CLR 07/M01 A3017 RMK AO2 SLP222 T00671011 =
2017-12-17 13:53 METAR KTHV 171853Z AUTO 00000KT 10SM CLR 07/M02 A3018 RMK AO2 SLP226 T00721017 =
2017-12-17 12:53 METAR KTHV 171753Z AUTO 00000KT 10SM CLR 05/M01 A3021 RMK AO2 SLP237 T00501011
                 10050 21050 58014 =
2017-12-17 11:53 METAR KTHV 171653Z AUTO 00000KT 9SM CLR 03/M02 A3025 RMK AO2 SLP250 T00331022 =
2017-12-17 10:53 METAR KTHV 171553Z AUTO 00000KT 6SM HZ CLR 02/M02 A3026 RMK AO2 SLP255 T00221017
                 =
2017-12-17 09:53 METAR KTHV 171453Z AUTO 00000KT 5SM BR CLR 00/M02 A3025 RMK AO2 SLP252 T00001017
                 51007 =
2017-12-17 08:53 METAR KTHV 171353Z AUTO 00000KT 7SM CLR M02/M03 A3024 RMK AO2 SLP250 T10221033 =

Support USWX by starting your Amazon purchase here.